createdAt,value
2022-12-23T00:01:50.129Z,2.60
2022-12-23T00:04:18.549Z,2.70
2022-12-23T00:06:48.332Z,2.60
2022-12-23T00:09:16.987Z,2.70
2022-12-23T00:12:13.699Z,2.40
2022-12-23T00:14:59.324Z,1.90
2022-12-23T00:17:27.686Z,2.30
2022-12-23T00:19:56.161Z,2.20
2022-12-23T00:22:46.118Z,2.10
2022-12-23T00:25:14.875Z,2.10
2022-12-23T00:27:43.370Z,2.10
2022-12-23T00:30:12.471Z,2.07
2022-12-23T00:32:40.719Z,2.00
2022-12-23T00:35:09.612Z,1.97
2022-12-23T00:37:39.287Z,2.00
2022-12-23T00:40:27.349Z,2.10
2022-12-23T00:42:55.706Z,1.93
2022-12-23T00:45:24.916Z,1.83
2022-12-23T00:48:10.738Z,1.90
2022-12-23T00:50:40.639Z,2.10
2022-12-23T00:53:10.322Z,1.90
2022-12-23T00:55:38.598Z,1.90
2022-12-23T00:58:07.036Z,2.00
2022-12-23T01:00:52.765Z,2.00
2022-12-23T01:03:38.416Z,1.90
2022-12-23T01:06:07.248Z,1.80
2022-12-23T01:08:36.919Z,1.90
2022-12-23T01:11:06.193Z,2.20
2022-12-23T01:13:34.971Z,1.83
2022-12-23T01:16:04.328Z,1.93
2022-12-23T01:18:32.661Z,2.00
2022-12-23T01:21:03.952Z,2.10
2022-12-23T01:23:32.625Z,2.00
2022-12-23T01:26:04.327Z,2.13
2022-12-23T01:28:33.928Z,2.30
2022-12-23T01:31:03.721Z,2.17
2022-12-23T01:33:33.258Z,2.10
2022-12-23T01:36:02.745Z,2.23
2022-12-23T01:38:31.267Z,2.20
2022-12-23T01:41:01.417Z,2.10
2022-12-23T01:43:46.022Z,1.73
2022-12-23T01:46:14.633Z,2.00
2022-12-23T01:48:45.913Z,2.03
2022-12-23T01:51:17.352Z,1.90
2022-12-23T01:53:48.525Z,1.90
2022-12-23T01:56:23.956Z,2.03
2022-12-23T01:58:55.470Z,2.07
2022-12-23T02:01:41.593Z,2.07
2022-12-23T02:04:13.135Z,2.03
2022-12-23T02:07:01.471Z,1.93
2022-12-23T02:09:31.964Z,1.90
2022-12-23T02:12:45.008Z,1.90
2022-12-23T02:15:44.565Z,2.00
2022-12-23T02:18:29.931Z,1.87
2022-12-23T02:21:21.658Z,2.13
2022-12-23T02:24:38.820Z,2.13
2022-12-23T02:27:14.597Z,2.20
2022-12-23T02:30:24.839Z,2.20
2022-12-23T02:33:30.913Z,2.30
2022-12-23T02:36:10.208Z,2.27
2022-12-23T02:38:47.114Z,2.60
2022-12-23T02:41:21.203Z,2.30
2022-12-23T02:43:56.693Z,2.53
2022-12-23T02:46:33.023Z,2.50
2022-12-23T02:49:09.209Z,2.50
2022-12-23T02:51:41.540Z,2.27
2022-12-23T02:54:14.214Z,2.60
2022-12-23T02:56:47.367Z,2.40
2022-12-23T02:59:18.816Z,2.20
2022-12-23T03:01:48.746Z,2.40
2022-12-23T03:04:18.616Z,2.40
2022-12-23T03:06:50.711Z,2.40
2022-12-23T03:09:31.336Z,2.67
2022-12-23T03:12:06.638Z,2.50
2022-12-23T03:14:54.360Z,2.67
2022-12-23T03:17:37.253Z,2.40
2022-12-23T03:20:15.227Z,2.30
2022-12-23T03:22:53.490Z,3.03
2022-12-23T03:25:27.309Z,2.50
2022-12-23T03:28:02.382Z,2.50
2022-12-23T03:30:32.972Z,2.37
2022-12-23T03:33:06.549Z,2.93
2022-12-23T03:35:41.526Z,2.80
2022-12-23T03:38:11.236Z,2.80
2022-12-23T03:40:42.720Z,2.70
2022-12-23T03:43:17.355Z,2.90
2022-12-23T03:45:50.902Z,2.90
2022-12-23T03:48:23.823Z,2.90
2022-12-23T03:50:58.920Z,3.10
2022-12-23T03:53:32.276Z,3.10
2022-12-23T03:56:03.148Z,2.90
2022-12-23T03:58:38.903Z,3.20
2022-12-23T04:01:14.038Z,3.00
2022-12-23T04:03:50.382Z,2.80
2022-12-23T04:06:21.853Z,3.10
2022-12-23T04:08:51.271Z,2.90
2022-12-23T04:11:19.697Z,2.90
2022-12-23T04:13:49.178Z,3.30
2022-12-23T04:16:18.037Z,2.70
2022-12-23T04:18:46.397Z,2.70
2022-12-23T04:21:14.672Z,2.47
2022-12-23T04:23:44.323Z,2.70
2022-12-23T04:26:12.607Z,2.53
2022-12-23T04:28:40.872Z,2.60
2022-12-23T04:31:09.333Z,2.37
2022-12-23T04:33:37.621Z,2.40
2022-12-23T04:36:06.629Z,2.20
2022-12-23T04:38:34.959Z,2.30
2022-12-23T04:41:04.705Z,2.30
2022-12-23T04:43:32.984Z,2.00
2022-12-23T04:46:01.335Z,2.23
2022-12-23T04:48:29.615Z,2.10
2022-12-23T04:50:57.882Z,2.00
2022-12-23T04:53:26.205Z,2.17
2022-12-23T04:55:54.527Z,2.33
2022-12-23T04:58:25.060Z,2.30
2022-12-23T05:01:03.024Z,2.00
2022-12-23T05:03:32.071Z,2.20
2022-12-23T05:06:00.396Z,2.10
2022-12-23T05:08:28.967Z,2.20
2022-12-23T05:10:57.551Z,2.47
2022-12-23T05:13:27.514Z,2.10
2022-12-23T05:15:56.361Z,2.07
2022-12-23T05:18:24.706Z,2.30
2022-12-23T05:20:53.132Z,2.30
2022-12-23T05:23:21.413Z,2.30
2022-12-23T05:25:52.989Z,2.23
2022-12-23T05:28:21.707Z,2.10
2022-12-23T05:30:58.206Z,2.20
2022-12-23T05:33:26.898Z,2.37
2022-12-23T05:35:55.390Z,2.30
2022-12-23T05:38:24.435Z,2.33
2022-12-23T05:40:52.942Z,2.40
2022-12-23T05:43:21.298Z,2.40
2022-12-23T05:45:52.361Z,2.50
2022-12-23T05:48:20.727Z,2.50
2022-12-23T05:50:50.644Z,2.40
2022-12-23T05:53:19.277Z,2.10
2022-12-23T05:55:47.705Z,2.37
2022-12-23T05:58:16.190Z,2.60
2022-12-23T06:00:44.515Z,2.10
2022-12-23T06:03:14.320Z,2.60
2022-12-23T06:05:43.826Z,2.50
2022-12-23T06:08:12.098Z,2.30
2022-12-23T06:10:40.393Z,2.40
2022-12-23T06:13:09.325Z,2.50
2022-12-23T06:15:37.645Z,2.70
2022-12-23T06:18:06.180Z,2.40
2022-12-23T06:20:35.918Z,2.70
2022-12-23T06:23:04.509Z,2.30
2022-12-23T06:25:32.787Z,2.20
2022-12-23T06:28:01.077Z,2.00
2022-12-23T06:30:29.409Z,2.40
2022-12-23T06:32:57.763Z,2.47
2022-12-23T06:35:26.101Z,2.20
2022-12-23T06:37:55.828Z,2.20
2022-12-23T06:40:24.107Z,2.57
2022-12-23T06:42:52.446Z,2.20
2022-12-23T06:45:20.712Z,2.20
2022-12-23T06:47:49.014Z,2.70
2022-12-23T06:50:17.479Z,2.20
2022-12-23T06:52:45.961Z,2.63
2022-12-23T06:55:16.015Z,2.10
2022-12-23T06:57:44.268Z,2.40
2022-12-23T07:00:13.999Z,2.17
2022-12-23T07:02:42.399Z,2.03
2022-12-23T07:05:11.807Z,1.87
2022-12-23T07:07:40.122Z,2.00
2022-12-23T07:10:09.612Z,2.10
2022-12-23T07:12:39.812Z,1.93
2022-12-23T07:15:09.668Z,2.00
2022-12-23T07:17:37.989Z,1.90
2022-12-23T07:20:07.708Z,1.80
2022-12-23T07:22:36.100Z,1.70
2022-12-23T07:25:04.966Z,1.93
2022-12-23T07:27:33.239Z,2.00
2022-12-23T07:30:02.864Z,1.80
2022-12-23T07:32:31.176Z,1.70
2022-12-23T07:34:59.456Z,1.97
2022-12-23T07:37:27.923Z,1.80
2022-12-23T07:39:57.366Z,2.00
2022-12-23T07:42:44.053Z,2.37
2022-12-23T07:45:15.345Z,2.10
2022-12-23T07:47:43.721Z,2.20
2022-12-23T07:50:12.777Z,2.30
2022-12-23T07:52:41.191Z,2.10
2022-12-23T07:55:10.065Z,2.30
2022-12-23T07:57:38.501Z,2.77
2022-12-23T08:00:08.558Z,3.00
2022-12-23T08:02:44.749Z,2.80
2022-12-23T08:05:14.335Z,3.10
2022-12-23T08:07:45.042Z,3.33
2022-12-23T08:10:14.117Z,3.30
2022-12-23T08:12:42.539Z,3.10
2022-12-23T08:15:11.181Z,3.40
2022-12-23T08:17:39.496Z,3.70
2022-12-23T08:20:11.605Z,3.67
2022-12-23T08:22:39.939Z,3.90
2022-12-23T08:25:08.885Z,3.63
2022-12-23T08:27:37.235Z,3.63
2022-12-23T08:30:06.565Z,3.50
2022-12-23T08:32:34.891Z,4.10
2022-12-23T08:35:03.209Z,3.73
2022-12-23T08:37:33.092Z,3.57
2022-12-23T08:40:01.509Z,3.60
2022-12-23T08:42:29.813Z,3.80
2022-12-23T08:44:58.189Z,3.63
2022-12-23T08:47:26.420Z,4.00
2022-12-23T08:49:54.818Z,4.20
2022-12-23T08:52:23.089Z,3.83
2022-12-23T08:54:52.800Z,4.20
2022-12-23T08:57:21.107Z,3.80
2022-12-23T08:59:49.416Z,4.07
2022-12-23T09:02:17.753Z,4.03
2022-12-23T09:04:46.249Z,3.97
2022-12-23T09:07:14.578Z,4.50
2022-12-23T09:09:42.890Z,4.43
2022-12-23T09:12:12.629Z,4.47
2022-12-23T09:14:41.032Z,4.20
2022-12-23T09:17:09.783Z,4.43
2022-12-23T09:19:38.100Z,4.70
2022-12-23T09:22:06.399Z,4.30
2022-12-23T09:24:34.812Z,4.27
2022-12-23T09:27:03.072Z,4.13
2022-12-23T09:29:32.754Z,4.03
2022-12-23T09:32:01.432Z,4.00
2022-12-23T09:34:29.725Z,4.13
2022-12-23T09:36:58.095Z,4.43
2022-12-23T09:39:26.757Z,3.90
2022-12-23T09:42:06.178Z,3.53
2022-12-23T09:44:48.794Z,3.90
2022-12-23T09:47:22.001Z,4.07
2022-12-23T09:49:53.622Z,4.53
2022-12-23T09:52:26.484Z,4.37
2022-12-23T09:54:56.467Z,3.83
2022-12-23T09:57:32.550Z,3.90
2022-12-23T10:00:11.360Z,3.50
2022-12-23T10:02:53.040Z,3.70
2022-12-23T10:05:29.512Z,4.10
2022-12-23T10:08:03.707Z,4.03
2022-12-23T10:10:36.059Z,4.23
2022-12-23T10:13:07.219Z,4.27
2022-12-23T10:15:40.334Z,3.70
2022-12-23T10:18:18.213Z,3.30
2022-12-23T10:20:52.047Z,3.40
2022-12-23T10:23:29.939Z,3.70
2022-12-23T10:25:58.451Z,3.50
2022-12-23T10:28:30.011Z,3.40
2022-12-23T10:34:01.424Z,3.77
2022-12-23T10:36:40.559Z,3.40
2022-12-23T10:39:22.068Z,3.80
2022-12-23T10:42:00.753Z,3.30
2022-12-23T10:45:13.135Z,3.70
2022-12-23T10:47:56.284Z,3.73
2022-12-23T10:50:45.857Z,3.90
2022-12-23T10:53:23.470Z,4.20
2022-12-23T10:55:51.965Z,4.10
2022-12-23T10:58:21.914Z,3.90
2022-12-23T11:00:54.896Z,4.70
2022-12-23T11:03:29.573Z,4.33
2022-12-23T11:05:59.446Z,4.43
2022-12-23T11:08:30.642Z,4.70
2022-12-23T11:11:00.945Z,4.67
2022-12-23T11:13:38.859Z,5.20
2022-12-23T11:16:18.626Z,5.30
2022-12-23T11:19:07.332Z,4.87
2022-12-23T11:21:35.932Z,4.83
2022-12-23T11:24:21.867Z,5.27
2022-12-23T11:26:52.056Z,4.73
2022-12-23T11:29:24.999Z,5.00
2022-12-23T11:31:53.853Z,5.20
2022-12-23T11:34:26.704Z,5.30
2022-12-23T11:37:03.292Z,5.60
2022-12-23T11:39:37.947Z,5.60
2022-12-23T11:42:12.247Z,5.00
2022-12-23T11:44:43.569Z,5.37
2022-12-23T11:47:30.894Z,5.53
2022-12-23T11:50:03.136Z,6.03
2022-12-23T11:52:33.683Z,5.80
2022-12-23T11:55:03.587Z,5.17
2022-12-23T11:57:39.585Z,5.67
2022-12-23T12:00:19.008Z,5.03
2022-12-23T12:02:49.570Z,5.47
2022-12-23T12:05:25.941Z,4.83
2022-12-23T12:07:59.490Z,6.20
2022-12-23T12:10:31.594Z,5.47
2022-12-23T12:13:04.875Z,5.13
2022-12-23T12:15:41.081Z,5.33
2022-12-23T12:18:13.572Z,5.53
2022-12-23T12:20:47.775Z,5.93
2022-12-23T12:23:21.895Z,6.03
2022-12-23T12:25:54.253Z,5.70
2022-12-23T12:28:26.092Z,6.00
2022-12-23T12:31:01.649Z,6.17
2022-12-23T12:33:36.859Z,5.87
2022-12-23T12:36:15.745Z,5.87
2022-12-23T12:38:47.717Z,6.63
2022-12-23T12:41:24.383Z,6.10
2022-12-23T12:44:00.192Z,6.03
2022-12-23T12:46:35.328Z,5.87
2022-12-23T12:49:10.255Z,5.87
2022-12-23T12:51:49.443Z,6.03
2022-12-23T12:54:26.764Z,6.43
2022-12-23T12:56:56.738Z,7.30
2022-12-23T12:59:28.435Z,6.40
2022-12-23T13:02:17.099Z,6.67
2022-12-23T13:05:19.233Z,8.37
2022-12-23T13:08:00.795Z,8.37
2022-12-23T13:10:39.291Z,13.10
2022-12-23T13:13:19.852Z,6.17
2022-12-23T13:15:54.617Z,7.20
2022-12-23T13:18:31.687Z,6.63
2022-12-23T13:21:04.953Z,6.70
2022-12-23T13:23:44.026Z,7.57
2022-12-23T13:26:27.279Z,8.17
2022-12-23T13:29:06.177Z,7.00
2022-12-23T13:31:48.656Z,7.33
2022-12-23T13:34:33.355Z,7.23
2022-12-23T13:37:12.373Z,7.00
2022-12-23T13:39:52.796Z,7.67
2022-12-23T13:42:28.777Z,6.67
2022-12-23T13:44:58.190Z,8.50
2022-12-23T13:47:44.862Z,8.63
2022-12-23T13:50:19.051Z,6.47
2022-12-23T13:53:03.097Z,7.20
2022-12-23T13:55:48.291Z,8.60
2022-12-23T13:58:19.432Z,7.90
2022-12-23T14:00:47.955Z,8.20
2022-12-23T14:03:24.004Z,7.13
2022-12-23T14:05:53.357Z,7.03
2022-12-23T14:08:28.323Z,8.03
2022-12-23T14:11:00.637Z,6.67
2022-12-23T14:13:30.900Z,7.07
2022-12-23T14:16:27.739Z,7.03
2022-12-23T14:19:22.396Z,7.00
2022-12-23T14:22:02.255Z,6.77
2022-12-23T14:25:06.616Z,7.43
2022-12-23T14:27:47.739Z,7.50
2022-12-23T14:30:19.509Z,7.60
2022-12-23T14:32:51.096Z,7.33
2022-12-23T14:35:26.736Z,6.67
2022-12-23T14:38:23.566Z,7.97
2022-12-23T14:41:09.424Z,7.77
2022-12-23T14:43:55.807Z,7.00
2022-12-23T14:46:54.720Z,6.90
2022-12-23T14:49:41.446Z,7.63
2022-12-23T14:52:44.351Z,7.47
2022-12-23T14:55:52.857Z,7.43
2022-12-23T14:58:46.523Z,7.57
2022-12-23T15:01:19.543Z,8.00
2022-12-23T15:03:59.263Z,7.13
2022-12-23T15:06:34.440Z,7.40
2022-12-23T15:09:04.038Z,7.13
2022-12-23T15:11:35.426Z,6.83
2022-12-23T15:14:17.507Z,7.43
2022-12-23T15:16:47.274Z,7.10
2022-12-23T15:19:24.382Z,6.97
2022-12-23T15:22:13.531Z,7.27
2022-12-23T15:24:49.400Z,7.50
2022-12-23T15:27:27.377Z,6.47
2022-12-23T15:29:57.287Z,6.10
2022-12-23T15:32:28.897Z,7.83
2022-12-23T15:35:02.226Z,7.40
2022-12-23T15:37:32.790Z,7.07
2022-12-23T15:40:13.379Z,7.90
2022-12-23T15:42:48.804Z,7.97
2022-12-23T15:45:33.235Z,6.87
2022-12-23T15:48:04.427Z,6.73
2022-12-23T15:50:40.417Z,7.40
2022-12-23T15:53:13.923Z,6.83
2022-12-23T15:55:42.325Z,6.90
2022-12-23T15:58:19.826Z,7.07
2022-12-23T16:00:54.408Z,7.13
2022-12-23T16:03:30.852Z,6.80
2022-12-23T16:06:11.772Z,7.97
2022-12-23T16:08:40.223Z,16.13
2022-12-23T16:11:16.021Z,10.43
2022-12-23T16:13:58.696Z,9.83
2022-12-23T16:16:38.627Z,7.83
2022-12-23T16:19:24.638Z,8.17
2022-12-23T16:21:53.065Z,8.67
2022-12-23T16:24:22.281Z,10.27
2022-12-23T16:26:50.643Z,8.03
2022-12-23T16:29:19.047Z,9.40
2022-12-23T16:31:54.287Z,8.37
2022-12-23T16:34:27.225Z,9.97
2022-12-23T16:36:55.610Z,9.30
2022-12-23T16:39:24.469Z,9.93
2022-12-23T16:41:53.156Z,9.80
2022-12-23T16:44:21.495Z,8.67
2022-12-23T16:46:52.022Z,8.57
2022-12-23T16:49:22.449Z,8.87
2022-12-23T16:51:54.725Z,8.63
2022-12-23T16:54:23.136Z,8.00
2022-12-23T16:56:51.495Z,8.40
2022-12-23T16:59:21.052Z,9.07
2022-12-23T17:01:50.639Z,9.10
2022-12-23T17:04:19.087Z,11.87
2022-12-23T17:06:47.440Z,12.80
2022-12-23T17:09:17.101Z,12.83
2022-12-23T17:11:48.319Z,10.17
2022-12-23T17:14:18.841Z,12.30
2022-12-23T17:16:48.216Z,10.43
2022-12-23T17:19:21.902Z,36.07
2022-12-23T17:21:58.693Z,22.93
2022-12-23T17:24:28.445Z,18.97
2022-12-23T17:26:57.153Z,14.40
2022-12-23T17:29:25.786Z,20.77
2022-12-23T17:31:54.410Z,10.60
2022-12-23T17:34:24.379Z,10.33
2022-12-23T17:36:53.478Z,10.27
2022-12-23T17:39:22.987Z,19.77
2022-12-23T17:41:52.883Z,26.43
2022-12-23T17:44:21.318Z,13.00
2022-12-23T17:46:49.655Z,14.83
2022-12-23T17:49:17.989Z,11.23
2022-12-23T17:51:46.468Z,11.90
2022-12-23T17:54:22.677Z,10.73
2022-12-23T17:56:53.160Z,21.70
2022-12-23T17:59:21.919Z,17.17
2022-12-23T18:01:50.789Z,12.93
2022-12-23T18:04:19.189Z,11.00
2022-12-23T18:06:47.580Z,10.60
2022-12-23T18:09:16.700Z,11.83
2022-12-23T18:11:47.506Z,11.93
2022-12-23T18:14:19.453Z,11.03
2022-12-23T18:16:47.888Z,9.87
2022-12-23T18:19:19.251Z,11.77
2022-12-23T18:21:47.977Z,10.27
2022-12-23T18:24:16.855Z,10.13
2022-12-23T18:26:45.759Z,9.10
2022-12-23T18:29:14.225Z,10.60
2022-12-23T18:31:52.086Z,10.57
2022-12-23T18:34:21.608Z,11.07
2022-12-23T18:36:51.773Z,9.63
2022-12-23T18:39:21.005Z,10.73
2022-12-23T18:41:49.605Z,10.57
2022-12-23T18:44:20.133Z,12.40
2022-12-23T18:46:50.524Z,9.97
2022-12-23T18:49:19.170Z,9.47
2022-12-23T18:51:47.830Z,10.67
2022-12-23T18:54:17.056Z,11.20
2022-12-23T18:56:45.655Z,13.17
2022-12-23T18:59:19.277Z,16.00
2022-12-23T19:01:53.339Z,17.87
2022-12-23T19:04:21.736Z,13.37
2022-12-23T19:06:50.032Z,19.03
2022-12-23T19:09:21.289Z,17.23
2022-12-23T19:11:51.154Z,18.03
2022-12-23T19:14:19.536Z,14.93
2022-12-23T19:16:52.100Z,19.73
2022-12-23T19:19:23.018Z,14.67
2022-12-23T19:21:51.411Z,14.50
2022-12-23T19:24:19.733Z,15.07
2022-12-23T19:26:48.277Z,13.60
2022-12-23T19:29:16.914Z,18.67
2022-12-23T19:31:45.230Z,17.30
2022-12-23T19:34:15.760Z,16.30
2022-12-23T19:36:45.932Z,13.90
2022-12-23T19:39:16.679Z,10.00
2022-12-23T19:41:45.668Z,11.07
2022-12-23T19:44:14.238Z,10.03
2022-12-23T19:46:42.920Z,12.00
2022-12-23T19:49:17.577Z,13.13
2022-12-23T19:51:49.780Z,12.63
2022-12-23T19:54:19.095Z,17.93
2022-12-23T19:56:50.784Z,19.03
2022-12-23T19:59:19.624Z,15.30
2022-12-23T20:01:48.220Z,13.17
2022-12-23T20:04:17.042Z,10.97
2022-12-23T20:06:45.355Z,9.80
2022-12-23T20:09:15.168Z,10.17
2022-12-23T20:11:45.165Z,10.90
2022-12-23T20:14:15.678Z,10.50
2022-12-23T20:16:44.389Z,10.07
2022-12-23T20:19:12.943Z,10.50
2022-12-23T20:21:41.399Z,10.13
2022-12-23T20:24:10.436Z,13.20
2022-12-23T20:26:40.557Z,13.20
2022-12-23T20:29:09.763Z,10.73
2022-12-23T20:31:39.563Z,12.87
2022-12-23T20:34:10.280Z,11.63
2022-12-23T20:36:39.318Z,10.07
2022-12-23T20:39:08.459Z,16.63
2022-12-23T20:41:36.914Z,13.73
2022-12-23T20:46:56.588Z,12.17
2022-12-23T20:49:25.056Z,18.77
2022-12-23T20:51:53.494Z,16.87
2022-12-23T20:54:26.346Z,16.57
2022-12-23T20:56:58.233Z,11.90
2022-12-23T20:59:27.874Z,13.23
2022-12-23T21:01:56.531Z,11.40
2022-12-23T21:04:24.912Z,11.60
2022-12-23T21:06:53.401Z,11.47
2022-12-23T21:09:21.838Z,10.83
2022-12-23T21:11:50.302Z,12.60
2022-12-23T21:14:18.731Z,11.80
2022-12-23T21:16:48.521Z,14.63
2022-12-23T21:19:20.506Z,12.73
2022-12-23T21:21:49.578Z,12.20
2022-12-23T21:24:18.500Z,12.40
2022-12-23T21:26:55.420Z,13.90
2022-12-23T21:29:24.364Z,12.13
2022-12-23T21:31:55.092Z,17.03
2022-12-23T21:34:23.784Z,13.27
2022-12-23T21:36:52.118Z,11.03
2022-12-23T21:39:20.524Z,11.00
2022-12-23T21:41:51.017Z,12.10
2022-12-23T21:44:19.458Z,12.00
2022-12-23T21:46:47.890Z,10.17
2022-12-23T21:49:17.636Z,11.30
2022-12-23T21:51:46.032Z,10.60
2022-12-23T21:54:14.561Z,10.40
2022-12-23T21:56:43.233Z,10.07
2022-12-23T21:59:13.962Z,9.93
2022-12-23T22:01:42.685Z,10.63
2022-12-23T22:04:11.560Z,9.70
2022-12-23T22:06:44.562Z,10.00
2022-12-23T22:09:15.418Z,11.00
2022-12-23T22:11:44.077Z,9.73
2022-12-23T22:14:15.235Z,9.40
2022-12-23T22:16:43.576Z,10.20
2022-12-23T22:19:13.147Z,9.67
2022-12-23T22:21:43.195Z,10.17
2022-12-23T22:24:12.246Z,10.03
2022-12-23T22:26:41.678Z,10.17
2022-12-23T22:29:11.700Z,9.80
2022-12-23T22:31:43.099Z,8.87
2022-12-23T22:34:15.134Z,9.83
2022-12-23T22:36:45.129Z,10.03
2022-12-23T22:39:20.003Z,9.67
2022-12-23T22:41:50.094Z,9.70
2022-12-23T22:44:18.874Z,9.47
2022-12-23T22:46:47.497Z,10.03
2022-12-23T22:49:16.794Z,9.03
2022-12-23T22:51:46.576Z,9.93
2022-12-23T22:54:15.261Z,9.57
2022-12-23T22:56:43.516Z,9.30
2022-12-23T22:59:20.980Z,9.53
2022-12-23T23:01:50.809Z,9.77
2022-12-23T23:04:19.719Z,9.33
2022-12-23T23:06:49.461Z,9.63
2022-12-23T23:09:19.837Z,10.03
2022-12-23T23:11:48.287Z,10.17
2022-12-23T23:14:17.174Z,10.00
2022-12-23T23:16:45.735Z,8.90
2022-12-23T23:19:15.105Z,8.83
2022-12-23T23:21:43.534Z,9.80
2022-12-23T23:24:13.248Z,9.10
2022-12-23T23:26:41.771Z,10.13
2022-12-23T23:29:10.113Z,9.97
2022-12-23T23:31:43.335Z,9.13
2022-12-23T23:34:13.658Z,8.93
2022-12-23T23:36:42.651Z,9.43
2022-12-23T23:39:14.203Z,9.70
2022-12-23T23:41:42.863Z,9.13
2022-12-23T23:44:11.648Z,8.43
2022-12-23T23:46:40.410Z,9.43
2022-12-23T23:49:08.783Z,9.27
2022-12-23T23:51:37.126Z,8.70
2022-12-23T23:54:05.701Z,9.57
2022-12-23T23:56:38.640Z,9.83
2022-12-23T23:59:08.411Z,8.03
